createdAt,value
2023-04-17T00:02:25.867Z,49086.91
2023-04-17T00:04:54.242Z,49055.56
2023-04-17T00:07:22.924Z,49059.47
2023-04-17T00:09:49.654Z,49043.81
2023-04-17T00:12:16.156Z,49049.69
2023-04-17T00:14:42.574Z,49051.66
2023-04-17T00:17:08.955Z,49028.13
2023-04-17T00:19:35.391Z,49022.25
2023-04-17T00:22:01.770Z,49024.22
2023-04-17T00:24:28.201Z,49016.38
2023-04-17T00:26:54.588Z,49032.06
2023-04-17T00:29:20.954Z,49020.31
2023-04-17T00:31:47.408Z,49043.81
2023-04-17T00:34:14.181Z,49053.59
2023-04-17T00:36:40.589Z,49061.44
2023-04-17T00:39:07.486Z,49047.72
2023-04-17T00:41:33.843Z,49028.13
2023-04-17T00:44:00.336Z,49030.09
2023-04-17T00:46:27.118Z,49020.31
2023-04-17T00:48:54.150Z,49004.63
2023-04-17T00:51:20.980Z,49012.47
2023-04-17T00:53:47.764Z,49020.31
2023-04-17T00:56:14.559Z,49035.97
2023-04-17T00:58:41.304Z,49024.22
2023-04-17T01:01:08.346Z,49032.06
2023-04-17T01:03:35.282Z,49032.06
2023-04-17T01:06:02.876Z,49057.53
2023-04-17T01:08:39.351Z,49051.66
2023-04-17T01:11:05.838Z,49043.81
2023-04-17T01:13:32.518Z,49035.97
2023-04-17T01:15:58.899Z,49018.34
2023-04-17T01:18:25.664Z,49012.47
2023-04-17T01:20:52.019Z,49055.56
2023-04-17T01:23:18.778Z,49010.50
2023-04-17T01:25:46.311Z,49043.81
2023-04-17T01:28:12.930Z,49035.97
2023-04-17T01:30:39.309Z,49032.06
2023-04-17T01:33:06.040Z,49032.06
2023-04-17T01:35:32.428Z,49024.22
2023-04-17T01:37:58.855Z,49032.06
2023-04-17T01:40:25.316Z,49043.81
2023-04-17T01:42:51.694Z,49035.97
2023-04-17T01:45:18.177Z,49032.06
2023-04-17T01:47:44.952Z,49034.00
2023-04-17T01:50:12.028Z,49028.13
2023-04-17T01:52:39.773Z,49034.00
2023-04-17T01:55:06.841Z,49035.97
2023-04-17T01:57:33.300Z,49028.13
2023-04-17T01:59:59.693Z,49047.72
2023-04-17T02:02:26.137Z,49032.06
2023-04-17T02:04:52.630Z,49051.66
2023-04-17T02:07:19.056Z,49043.81
2023-04-17T02:09:45.897Z,49039.88
2023-04-17T02:12:12.299Z,49063.41
2023-04-17T02:14:39.362Z,49055.56
2023-04-17T02:17:05.876Z,49026.19
2023-04-17T02:19:32.439Z,49047.72
2023-04-17T02:21:58.847Z,49051.66
2023-04-17T02:24:25.774Z,49071.25
2023-04-17T02:26:52.161Z,49063.41
2023-04-17T02:29:19.549Z,49049.69
2023-04-17T02:31:46.380Z,49059.47
2023-04-17T02:34:13.221Z,49039.88
2023-04-17T02:36:39.596Z,49073.19
2023-04-17T02:39:05.973Z,49043.81
2023-04-17T02:41:32.423Z,49065.34
2023-04-17T02:44:00.976Z,49069.28
2023-04-17T02:46:27.468Z,49063.41
2023-04-17T02:48:53.919Z,49047.72
2023-04-17T02:51:20.277Z,49067.31
2023-04-17T02:53:47.111Z,49051.66
2023-04-17T02:56:13.494Z,49067.31
2023-04-17T02:58:39.927Z,49035.97
2023-04-17T03:01:06.409Z,49051.66
2023-04-17T03:03:35.626Z,49063.41
2023-04-17T03:06:02.459Z,49032.06
2023-04-17T03:08:31.898Z,49055.56
2023-04-17T03:10:59.910Z,49039.88
2023-04-17T03:13:26.287Z,49039.88
2023-04-17T03:15:52.978Z,49047.72
2023-04-17T03:18:19.332Z,49037.94
2023-04-17T03:20:46.253Z,49055.56
2023-04-17T03:23:12.633Z,49061.44
2023-04-17T03:25:39.040Z,49016.38
2023-04-17T03:28:05.446Z,49043.81
2023-04-17T03:30:31.831Z,49022.25
2023-04-17T03:32:58.250Z,49047.72
2023-04-17T03:35:24.964Z,49041.84
2023-04-17T03:37:51.445Z,49051.66
2023-04-17T03:40:17.944Z,49024.22
2023-04-17T03:42:44.369Z,49059.47
2023-04-17T03:45:10.998Z,49034.00
2023-04-17T03:47:37.388Z,49047.72
2023-04-17T03:50:04.044Z,49028.13
2023-04-17T03:52:30.446Z,49016.38
2023-04-17T03:54:57.167Z,49032.06
2023-04-17T03:57:23.543Z,49026.19
2023-04-17T03:59:49.914Z,49035.97
2023-04-17T04:02:16.425Z,49035.97
2023-04-17T04:04:43.281Z,49047.72
2023-04-17T04:07:09.864Z,49024.22
2023-04-17T04:09:36.231Z,49020.31
2023-04-17T04:12:02.938Z,49020.31
2023-04-17T04:14:30.025Z,49012.47
2023-04-17T04:16:56.689Z,49012.47
2023-04-17T04:19:23.113Z,49000.72
2023-04-17T04:21:49.658Z,48992.88
2023-04-17T04:24:16.734Z,48969.38
2023-04-17T04:26:43.220Z,48928.22
2023-04-17T04:29:11.699Z,48918.44
2023-04-17T04:31:38.579Z,48920.38
2023-04-17T04:34:06.035Z,48922.34
2023-04-17T04:36:36.043Z,48910.59
2023-04-17T04:39:05.634Z,48930.19
2023-04-17T04:41:33.931Z,48938.03
2023-04-17T04:44:01.177Z,48941.94
2023-04-17T04:46:28.277Z,48953.69
2023-04-17T04:48:54.667Z,48947.81
2023-04-17T04:51:21.074Z,48941.94
2023-04-17T04:53:47.489Z,48949.78
2023-04-17T04:56:14.192Z,48961.53
2023-04-17T04:58:40.797Z,48949.78
2023-04-17T05:01:07.724Z,48941.94
2023-04-17T05:03:34.212Z,48934.09
2023-04-17T05:06:00.802Z,48930.19
2023-04-17T05:08:27.177Z,48934.09
2023-04-17T05:10:53.564Z,48941.94
2023-04-17T05:13:19.922Z,48938.03
2023-04-17T05:15:46.326Z,48926.25
2023-04-17T05:18:12.745Z,48914.50
2023-04-17T05:20:39.557Z,48916.47
2023-04-17T05:23:06.061Z,48918.44
2023-04-17T05:25:32.834Z,48939.97
2023-04-17T05:27:59.246Z,48930.19
2023-04-17T05:30:25.699Z,48934.09
2023-04-17T05:32:53.871Z,48930.19
2023-04-17T05:35:21.080Z,48934.09
2023-04-17T05:37:47.526Z,48930.19
2023-04-17T05:40:14.086Z,48883.16
2023-04-17T05:42:40.806Z,48865.53
2023-04-17T05:45:07.704Z,48859.66
2023-04-17T05:47:34.192Z,48855.75
2023-04-17T05:50:00.738Z,48863.56
2023-04-17T05:52:30.380Z,48875.34
2023-04-17T05:54:56.805Z,48887.09
2023-04-17T05:57:23.334Z,48891.00
2023-04-17T05:59:49.736Z,48898.84
2023-04-17T06:02:16.849Z,48898.84
2023-04-17T06:04:44.496Z,48906.69
2023-04-17T06:07:11.738Z,48902.75
2023-04-17T06:09:38.790Z,48902.75
2023-04-17T06:12:05.470Z,48906.69
2023-04-17T06:14:32.046Z,48906.69
2023-04-17T06:16:58.576Z,48910.59
2023-04-17T06:19:24.997Z,48916.47
2023-04-17T06:21:51.458Z,48914.50
2023-04-17T06:24:18.984Z,48906.69
2023-04-17T06:26:45.429Z,48930.19
2023-04-17T06:29:12.615Z,48924.31
2023-04-17T06:31:39.354Z,48924.31
2023-04-17T06:34:05.967Z,48922.34
2023-04-17T06:36:33.272Z,48924.31
2023-04-17T06:38:59.632Z,48924.31
2023-04-17T06:41:26.022Z,48936.06
2023-04-17T06:43:52.388Z,48943.91
2023-04-17T06:46:18.871Z,48949.78
2023-04-17T06:48:45.312Z,48977.19
2023-04-17T06:51:11.703Z,48988.94
2023-04-17T06:53:38.113Z,48979.16
2023-04-17T06:56:04.939Z,48985.03
2023-04-17T06:58:31.509Z,48992.88
2023-04-17T07:00:57.869Z,49008.53
2023-04-17T07:03:24.471Z,49028.13
2023-04-17T07:05:51.049Z,49035.97
2023-04-17T07:08:19.378Z,49059.47
2023-04-17T07:10:45.802Z,49034.00
2023-04-17T07:13:12.374Z,49059.47
2023-04-17T07:15:38.794Z,49059.47
2023-04-17T07:18:05.384Z,49057.53
2023-04-17T07:20:31.771Z,49047.72
2023-04-17T07:22:58.488Z,49039.88
2023-04-17T07:25:25.037Z,49014.41
2023-04-17T07:27:51.410Z,49020.31
2023-04-17T07:30:17.765Z,49041.84
2023-04-17T07:32:44.194Z,49079.06
2023-04-17T07:35:10.631Z,49055.56
2023-04-17T07:37:37.191Z,49055.56
2023-04-17T07:40:05.190Z,49004.63
2023-04-17T07:42:31.943Z,49026.19
2023-04-17T07:44:58.331Z,48992.88
2023-04-17T07:47:25.088Z,49039.88
2023-04-17T07:49:51.551Z,49032.06
2023-04-17T07:52:18.104Z,49063.41
2023-04-17T07:54:44.888Z,49098.66
2023-04-17T07:57:11.329Z,49071.25
2023-04-17T07:59:37.709Z,49096.72
2023-04-17T08:02:04.218Z,49073.19
2023-04-17T08:04:30.879Z,49065.34
2023-04-17T08:06:57.521Z,49086.91
2023-04-17T08:09:24.137Z,49106.50
2023-04-17T08:11:57.189Z,49086.91
2023-04-17T08:14:25.024Z,49075.16
2023-04-17T08:16:51.676Z,49075.16
2023-04-17T08:19:18.490Z,49090.81
2023-04-17T08:21:47.450Z,49065.34
2023-04-17T08:24:14.226Z,49024.22
2023-04-17T08:26:40.694Z,48977.19
2023-04-17T08:29:07.398Z,48983.06
2023-04-17T08:31:36.783Z,48981.13
2023-04-17T08:34:13.773Z,48961.53
2023-04-17T08:36:41.215Z,48945.84
2023-04-17T08:39:09.859Z,48953.69
2023-04-17T08:41:48.967Z,48961.53
2023-04-17T08:44:20.560Z,48967.41
2023-04-17T08:46:47.574Z,48938.03
2023-04-17T08:49:14.818Z,48932.13
2023-04-17T08:51:42.136Z,48930.19
2023-04-17T08:54:08.597Z,48910.59
2023-04-17T08:56:35.225Z,48926.25
2023-04-17T08:59:01.665Z,48902.75
2023-04-17T09:01:29.778Z,48908.63
2023-04-17T09:03:57.366Z,48892.97
2023-04-17T09:06:24.036Z,48883.16
2023-04-17T09:08:59.475Z,48869.44
2023-04-17T09:11:26.653Z,48875.34
2023-04-17T09:13:54.299Z,48865.53
2023-04-17T09:16:21.090Z,48891.00
2023-04-17T09:18:48.690Z,48855.75
2023-04-17T09:21:18.635Z,48863.56
2023-04-17T09:23:54.320Z,48865.53
2023-04-17T09:26:25.715Z,48863.56
2023-04-17T09:29:11.086Z,48847.91
2023-04-17T09:31:40.423Z,48883.16
2023-04-17T09:34:08.884Z,48838.09
2023-04-17T09:36:38.139Z,48891.00
2023-04-17T09:39:16.790Z,48851.81
2023-04-17T09:41:43.360Z,48844.00
2023-04-17T09:44:10.082Z,48820.47
2023-04-17T09:46:42.938Z,48859.66
2023-04-17T09:49:15.580Z,48847.91
2023-04-17T09:51:42.335Z,48840.06
2023-04-17T09:54:11.349Z,48836.16
2023-04-17T09:56:38.940Z,48847.91
2023-04-17T09:59:06.790Z,48840.06
2023-04-17T10:01:35.343Z,48855.75
2023-04-17T10:04:03.520Z,48832.22
2023-04-17T10:06:34.604Z,48859.66
2023-04-17T10:09:01.295Z,48859.66
2023-04-17T10:11:32.016Z,48883.16
2023-04-17T10:14:11.169Z,48859.66
2023-04-17T10:16:39.673Z,48840.06
2023-04-17T10:19:23.978Z,48853.78
2023-04-17T10:22:15.223Z,48887.09
2023-04-17T10:24:52.340Z,48883.16
2023-04-17T10:27:24.779Z,48869.44
2023-04-17T10:29:57.424Z,48900.78
2023-04-17T10:32:31.434Z,48902.75
2023-04-17T10:34:59.509Z,48930.19
2023-04-17T10:37:50.792Z,48891.00
2023-04-17T10:40:29.859Z,48887.09
2023-04-17T10:43:19.719Z,48918.44
2023-04-17T10:46:04.026Z,49004.63
2023-04-17T10:48:40.786Z,48996.78
2023-04-17T10:51:30.269Z,48938.03
2023-04-17T10:53:58.501Z,49020.31
2023-04-17T10:56:26.376Z,48941.94
2023-04-17T10:59:00.779Z,48943.91
2023-04-17T11:01:38.149Z,48932.13
2023-04-17T11:04:05.043Z,48887.09
2023-04-17T11:06:33.051Z,48922.34
2023-04-17T11:09:00.387Z,48918.44
2023-04-17T11:11:40.512Z,48902.75
2023-04-17T11:14:14.707Z,48961.53
2023-04-17T11:16:42.793Z,48877.28
2023-04-17T11:19:11.192Z,48914.50
2023-04-17T11:21:45.286Z,48867.50
2023-04-17T11:24:12.435Z,48879.25
2023-04-17T11:26:46.574Z,48918.44
